INFORMACIÓN METAR y TAF
METAR FOR GOBD
ADDS - METARS form results

(0655 UTC 24 January 2019)
Data provider http://aviationweather.gov/metar/data/
 
METAR text: GOBD 240630Z 01015KT 8000 NSC 18/12 Q1013 NOSIG
Conditions at: GOBD (DAKAR/DIAGNE , SN) observed 0630 UTC 24 January 2019
Temperature: 18.0°C (64°F)
Dewpoint: 12.0°C (54°F) [RH = 68%]
Pressure (altimeter): 29.91 inches Hg (1013.0 mb)
Winds: from the N (10 degrees) at 17 MPH (15 knots; 7.7 m/s)
Visibility: 5 miles ( 8 km)
Ceiling: at least 12,000 feet AGL
Clouds: sky clear below 12,000 feet AGL
Weather: no significant weather observed at this time

METAR text: GOBD 240600Z 36013KT 8000 NSC 18/11 Q1013 NOSIG
Conditions at: GOBD (DAKAR/DIAGNE , SN) observed 0600 UTC 24 January 2019
Temperature: 18.0°C (64°F)
Dewpoint: 11.0°C (52°F) [RH = 64%]
Pressure (altimeter): 29.91 inches Hg (1013.0 mb)
Winds: from the N (360 degrees) at 15 MPH (13 knots; 6.7 m/s)
Visibility: 5 miles ( 8 km)
Ceiling: at least 12,000 feet AGL
Clouds: sky clear below 12,000 feet AGL
Weather: no significant weather observed at this time

Forecast for: GOBD (DAKAR/DIAGNE , SN)
Text: TAF GOBD 240530Z 2406/2512 36012KT CAVOK
Forecast period: 0600 UTC 24 January 2019 to 1200 UTC 25 January 2019
Forecast type: FROM: standard forecast or significant change
Winds: from the N (360 degrees) at 14 MPH (12 knots; 6.2 m/s)
Visibility: 6 or more miles 10+ km)
Ceiling: unknown
Clouds: missing
Weather: NSW  (no significant weather)

 MAPA DE AEROPUERTO

 INFORMACIÓN DE PISTA

 FRECUANCIAS DEL AEROPUERTO

 RADIO AYUDAS DEL AEROPUERTO



Powered by Virtual Airlines Manager [v2.6.2]